Time;durP1;ratioP1;P1;durP2;ratioP2;P2;SDS_P1;SDS_P2;PMS_P1;PMS_P2;Temp;Humidity;BMP_temperature;BMP_pressure;BME280_temperature;BME280_humidity;BME280_pressure;Samples;Min_cycle;Max_cycle;Signal;HPM_P1;HPM_P2
2022/05/09 06:35:59;;;;;;;;;;;;;;;17.65;67.81;97541.22;4230607;27;10447;-71
2022/05/09 06:38:05;;;;;;;;;;;;;;;17.83;67.72;97538.63;4230011;28;5697;-71
2022/05/09 06:40:09;;;;;;;;;;;;;;;18.00;67.58;97542.34;4230500;28;5669;-70
2022/05/09 06:42:11;;;;;;;;;;;;;;;18.10;67.38;97546.38;4230280;28;5812;-70
2022/05/09 06:44:13;;;;;;;;;;;;;;;18.18;67.10;97538.06;4230759;28;5745;-68
2022/05/09 06:46:16;;;;;;;;;;;;;;;18.24;66.99;97543.34;4231940;28;5680;-70
2022/05/09 06:48:19;;;;;;;;;;;;;;;18.30;66.72;97547.78;4231952;28;5954;-70
2022/05/09 06:50:24;;;;;;;;;;;;;;;18.37;66.66;97547.72;4230427;28;5760;-69
2022/05/09 06:52:25;;;;;;;;;;;;;;;18.41;66.47;97546.22;4230865;28;5692;-69
2022/05/09 06:54:27;;;;;;;;;;;;;;;18.41;66.33;97542.72;4231913;28;5763;-69
2022/05/09 06:56:29;;;;;;;;;;;;;;;18.42;66.04;97545.19;4230453;28;5906;-70
2022/05/09 06:58:31;;;;;;;;;;;;;;;18.46;66.13;97542.88;4231743;28;5665;-69
2022/05/09 07:00:32;;;;;;;;;;;;;;;18.50;65.71;97547.56;4230731;28;5620;-70
2022/05/09 07:02:34;;;;;;;;;;;;;;;18.51;65.89;97543.84;4227117;28;6792;-69
2022/05/09 07:04:37;;;;;;;;;;;;;;;18.52;65.57;97544.66;4227610;28;5694;-70
2022/05/09 07:06:39;;;;;;;;;;;;;;;18.52;65.41;97553.50;4215222;28;5702;-69
2022/05/09 07:08:42;;;;;;;;;;;;;;;18.52;65.48;97545.47;4214303;28;5645;-69
2022/05/09 07:10:45;;;;;;;;;;;;;;;18.54;64.91;97547.91;4214253;28;5714;-69
2022/05/09 07:13:08;;;;;;;;;;;;;;;18.53;64.88;97544.44;4214759;28;5686;-70
2022/05/09 07:15:13;;;;;;;;;;;;;;;18.51;64.55;97543.84;4214533;28;5730;-70
2022/05/09 07:17:15;;;;;;;;;;;;;;;18.50;64.56;97555.59;4214741;28;5729;-70
2022/05/09 07:19:16;;;;;;;;;;;;;;;18.49;64.26;97550.47;4213222;28;5678;-70
2022/05/09 07:21:19;;;;;;;;;;;;;;;18.47;64.13;97542.66;4213041;28;5731;-69
2022/05/09 07:23:21;;;;;;;;;;;;;;;18.47;64.16;97556.06;4213569;28;5778;-69
2022/05/09 07:25:24;;;;;;;;;;;;;;;18.45;63.93;97549.25;4212965;28;5628;-69
2022/05/09 07:27:26;;;;;;;;;;;;;;;18.41;63.87;97556.13;4226105;28;5669;-69
2022/05/09 07:29:28;;;;;;;;;;;;;;;18.40;63.86;97557.97;4230052;28;5720;-70
2022/05/09 07:31:30;;;;;;;;;;;;;;;18.39;63.63;97553.66;4227697;28;5734;-70
2022/05/09 07:33:32;;;;;;;;;;;;;;;18.37;63.34;97545.06;4213198;28;5643;-70
2022/05/09 07:35:34;;;;;;;;;;;;;;;18.34;63.33;97548.97;4219500;28;5734;-70
2022/05/09 07:37:35;;;;;;;;;;;;;;;18.33;63.28;97549.19;4203294;28;5701;-70
2022/05/09 07:39:37;;;;;;;;;;;;;;;18.30;63.11;97541.63;4211022;28;5760;-70
2022/05/09 07:41:39;;;;;;;;;;;;;;;18.31;63.10;97548.59;4219583;28;5777;-70
2022/05/09 07:43:40;;;;;;;;;;;;;;;18.32;62.96;97550.25;4213217;28;5796;-70
2022/05/09 07:45:47;;;;;;;;;;;;;;;18.33;63.08;97546.53;4203313;28;5902;-70
2022/05/09 07:47:49;;;;;;;;;;;;;;;18.36;62.65;97548.78;4202956;28;7715;-70
2022/05/09 07:49:51;;;;;;;;;;;;;;;18.37;62.60;97547.72;4201711;28;5628;-70
2022/05/09 07:51:52;;;;;;;;;;;;;;;18.40;62.67;97552.63;4203062;28;5689;-70
2022/05/09 07:53:54;;;;;;;;;;;;;;;18.43;62.46;97546.81;4201641;28;5778;-70
2022/05/09 07:55:57;;;;;;;;;;;;;;;18.45;62.36;97550.09;4202708;28;5851;-70
2022/05/09 07:57:58;;;;;;;;;;;;;;;18.47;62.35;97556.06;4201640;28;5721;-70
2022/05/09 08:00:00;;;;;;;;;;;;;;;18.50;62.19;97558.28;4202820;28;5682;-70
2022/05/09 08:02:03;;;;;;;;;;;;;;;18.51;62.04;97557.22;4218252;28;5676;-71
2022/05/09 08:04:07;;;;;;;;;;;;;;;18.51;61.81;97551.88;4204035;28;5776;-70
2022/05/09 08:06:09;;;;;;;;;;;;;;;18.52;61.82;97556.19;4200917;28;5643;-70
2022/05/09 08:08:12;;;;;;;;;;;;;;;18.55;61.76;97561.06;4202658;28;5686;-70
2022/05/09 08:10:17;;;;;;;;;;;;;;;18.58;61.89;97559.84;4202425;28;5778;-70
2022/05/09 08:12:20;;;;;;;;;;;;;;;18.58;61.55;97563.31;4202683;28;5803;-70
2022/05/09 08:14:22;;;;;;;;;;;;;;;18.60;61.55;97561.25;4202877;28;5713;-70
2022/05/09 08:16:30;;;;;;;;;;;;;;;18.60;61.56;97555.06;4202645;28;5864;-70
2022/05/09 08:18:32;;;;;;;;;;;;;;;18.59;61.19;97562.28;4214836;28;5692;-70
2022/05/09 08:20:36;;;;;;;;;;;;;;;18.56;61.00;97554.69;4218288;28;5723;-69
2022/05/09 08:22:37;;;;;;;;;;;;;;;18.56;61.04;97554.69;4219383;28;5767;-70
2022/05/09 08:24:39;;;;;;;;;;;;;;;18.59;61.00;97556.94;4218866;28;5672;-70
2022/05/09 08:26:41;;;;;;;;;;;;;;;18.63;60.99;97555.41;4218727;28;5666;-70
2022/05/09 08:28:42;;;;;;;;;;;;;;;18.67;60.64;97555.81;4218285;28;5625;-71
2022/05/09 08:30:44;;;;;;;;;;;;;;;18.69;60.72;97559.09;4219302;28;5736;-71
2022/05/09 08:32:46;;;;;;;;;;;;;;;18.71;60.50;97554.34;4219427;28;5693;-71
2022/05/09 08:34:51;;;;;;;;;;;;;;;18.76;60.32;97565.19;4207614;28;5881;-70
2022/05/09 08:36:55;;;;;;;;;;;;;;;18.76;60.46;97557.13;4201434;28;5686;-71
2022/05/09 08:38:57;;;;;;;;;;;;;;;18.76;60.17;97562.50;4202157;28;5796;-71
2022/05/09 08:41:11;;;;;;;;;;;;;;;18.76;60.08;97565.19;4201982;28;5690;-70
2022/05/09 08:43:25;;;;;;;;;;;;;;;18.77;60.08;97558.78;4202774;28;5902;-70
2022/05/09 08:45:29;;;;;;;;;;;;;;;18.79;59.97;97553.19;4202192;28;7723;-70
2022/05/09 08:47:57;;;;;;;;;;;;;;;18.83;59.97;97562.41;4201055;28;5812;-70
2022/05/09 08:50:07;;;;;;;;;;;;;;;18.82;59.82;97560.78;4201941;28;5787;-70
2022/05/09 08:52:25;;;;;;;;;;;;;;;18.80;59.83;97560.16;4202517;28;5685;-70
2022/05/09 08:54:27;;;;;;;;;;;;;;;18.77;59.87;97558.78;4202001;28;5701;-70
2022/05/09 08:56:29;;;;;;;;;;;;;;;18.75;59.80;97568.09;4201536;28;5730;-70
2022/05/09 08:58:40;;;;;;;;;;;;;;;18.75;59.82;97562.72;4201728;28;5796;-70
2022/05/09 09:00:42;;;;;;;;;;;;;;;18.74;59.92;97559.22;4200836;28;5631;-70
2022/05/09 09:03:12;;;;;;;;;;;;;;;18.78;59.84;97564.94;4204122;28;5895;-69
2022/05/09 09:05:21;;;;;;;;;;;;;;;18.80;59.69;97563.69;4219433;28;5676;-69
2022/05/09 09:07:40;;;;;;;;;;;;;;;18.79;59.47;97561.22;4218848;28;5672;-69
2022/05/09 09:09:57;;;;;;;;;;;;;;;18.81;59.24;97569.88;4218600;28;5671;-70
2022/05/09 09:12:20;;;;;;;;;;;;;;;18.80;59.25;97568.22;4218597;28;5652;-70
2022/05/09 09:15:00;;;;;;;;;;;;;;;18.81;59.25;97575.22;4218456;28;5058;-70
2022/05/09 09:17:28;;;;;;;;;;;;;;;18.85;59.17;97573.72;4217518;28;5617;-70
2022/05/09 09:19:38;;;;;;;;;;;;;;;18.93;58.89;97567.25;4181109;28;5694;-70
2022/05/09 09:21:52;;;;;;;;;;;;;;;19.01;58.77;97574.94;4182387;28;5674;-69
2022/05/09 09:24:26;;;;;;;;;;;;;;;19.07;58.63;97572.19;4166650;28;5725;-69
2022/05/09 09:26:42;;;;;;;;;;;;;;;19.14;58.60;97570.22;4156073;28;5765;-69
2022/05/09 09:28:49;;;;;;;;;;;;;;;19.20;58.25;97574.66;4171897;28;5673;-69
2022/05/09 09:30:52;;;;;;;;;;;;;;;19.22;58.30;97571.75;4181174;28;5718;-69
2022/05/09 09:32:54;;;;;;;;;;;;;;;19.26;58.25;97572.94;4182311;28;5737;-70
2022/05/09 09:35:00;;;;;;;;;;;;;;;19.27;58.00;97573.75;4182331;28;5075;-70
2022/05/09 09:37:16;;;;;;;;;;;;;;;19.26;58.06;97566.75;4182858;28;5697;-70
2022/05/09 09:39:20;;;;;;;;;;;;;;;19.23;58.17;97567.19;4165190;28;5704;-70
2022/05/09 09:41:27;;;;;;;;;;;;;;;19.23;57.88;97572.56;4182075;28;5738;-70
2022/05/09 09:43:29;;;;;;;;;;;;;;;19.26;57.95;97566.75;4182789;28;5674;-69
2022/05/09 09:45:40;;;;;;;;;;;;;;;19.29;57.90;97566.28;4182685;28;5721;-69
2022/05/09 09:47:42;;;;;;;;;;;;;;;19.31;57.71;97567.69;4166203;28;5784;-70
2022/05/09 09:50:15;;;;;;;;;;;;;;;19.32;57.71;97561.28;4182436;28;5674;-69
2022/05/09 09:52:22;;;;;;;;;;;;;;;19.32;57.90;97569.31;4182936;28;5730;-70
2022/05/09 09:54:30;;;;;;;;;;;;;;;19.35;57.82;97560.00;4182575;28;5772;-69
2022/05/09 09:56:34;;;;;;;;;;;;;;;19.35;57.45;97558.13;4195838;28;5776;-69
2022/05/09 09:58:38;;;;;;;;;;;;;;;19.35;57.70;97562.69;4217720;28;5889;-69
2022/05/09 10:00:40;;;;;;;;;;;;;;;19.36;57.62;97561.63;4217772;28;7726;-69
2022/05/09 10:02:43;;;;;;;;;;;;;;;19.36;57.48;97554.41;4215891;28;5911;-70
2022/05/09 10:04:45;;;;;;;;;;;;;;;19.34;57.50;97559.19;4206134;28;5805;-69
2022/05/09 10:07:07;;;;;;;;;;;;;;;19.34;57.20;97553.00;4201083;28;5797;-69
2022/05/09 10:09:19;;;;;;;;;;;;;;;19.34;57.29;97553.00;4200755;28;5813;-69
2022/05/09 10:11:30;;;;;;;;;;;;;;;19.36;57.56;97551.72;4200849;28;5697;-69
2022/05/09 10:13:37;;;;;;;;;;;;;;;19.41;57.21;97551.88;4201012;28;6362;-69
2022/05/09 10:15:40;;;;;;;;;;;;;;;19.41;57.17;97548.38;4200832;28;5792;-69
2022/05/09 10:17:42;;;;;;;;;;;;;;;19.40;57.02;97546.72;4199687;28;5698;-69
2022/05/09 10:19:43;;;;;;;;;;;;;;;19.41;57.07;97546.50;4201045;28;5699;-69
2022/05/09 10:26:52;;;;;;;;;;;;;;;19.51;56.79;97551.31;4150957;28;6059;-70
2022/05/09 10:28:58;;;;;;;;;;;;;;;19.51;56.56;97545.94;4165665;28;5769;-69
2022/05/09 10:31:10;;;;;;;;;;;;;;;19.54;56.61;97548.16;4165689;28;5771;-69
2022/05/09 10:33:34;;;;;;;;;;;;;;;19.59;56.84;97544.78;4133016;28;5715;-69
2022/05/09 10:35:56;;;;;;;;;;;;;;;19.60;56.73;97541.91;4149851;28;5717;-69
2022/05/09 10:38:21;;;;;;;;;;;;;;;19.59;56.58;97534.06;4166033;28;5692;-69
2022/05/09 10:40:34;;;;;;;;;;;;;;;19.59;56.64;97537.56;4165095;28;6405;-70
2022/05/09 10:42:41;;;;;;;;;;;;;;;19.61;56.23;97535.50;4165701;28;5409;-70
2022/05/09 10:44:48;;;;;;;;;;;;;;;19.62;56.15;97539.78;4165504;28;5717;-70
2022/05/09 10:46:52;;;;;;;;;;;;;;;19.62;56.31;97533.63;4149602;28;5711;-70
2022/05/09 10:49:03;;;;;;;;;;;;;;;19.61;56.24;97532.81;4148976;28;5704;-70
2022/05/09 10:51:28;;;;;;;;;;;;;;;19.62;55.73;97533.63;4165562;28;5776;-70
2022/05/09 10:54:05;;;;;;;;;;;;;;;19.59;55.99;97526.84;4165402;28;5819;-70
2022/05/09 10:56:14;;;;;;;;;;;;;;;19.60;55.96;97525.00;4165427;28;5784;-70
2022/05/09 10:59:00;;;;;;;;;;;;;;;19.61;55.63;97524.75;4149312;28;5707;-70
2022/05/09 11:01:08;;;;;;;;;;;;;;;19.62;55.64;97521.03;4172609;28;5752;-69
2022/05/09 11:03:23;;;;;;;;;;;;;;;19.62;55.67;97518.34;4214621;28;5620;-70
2022/05/09 11:05:28;;;;;;;;;;;;;;;19.63;55.33;97519.97;4199210;28;5627;-69
2022/05/09 11:07:48;;;;;;;;;;;;;;;19.65;55.35;97517.88;4200491;28;5745;-69
2022/05/09 11:10:18;;;;;;;;;;;;;;;19.67;55.33;97512.25;4200360;28;7294;-69
2022/05/09 11:12:39;;;;;;;;;;;;;;;19.68;55.19;97519.25;4203707;28;5681;-70
2022/05/09 11:14:45;;;;;;;;;;;;;;;19.68;55.25;97514.72;4203674;28;5705;-68
2022/05/09 11:17:28;;;;;;;;;;;;;;;19.71;55.23;97524.19;4203456;28;5709;-69
2022/05/09 11:20:00;;;;;;;;;;;;;;;19.71;54.98;97525.00;4168247;28;5724;-70
2022/05/09 11:22:14;;;;;;;;;;;;;;;19.73;54.98;97512.16;4176829;28;5598;-69
2022/05/09 11:24:34;;;;;;;;;;;;;;;19.77;54.91;97516.00;4184867;28;5637;-69
2022/05/09 11:27:07;;;;;;;;;;;;;;;19.82;55.05;97511.78;4184361;28;5721;-69
2022/05/09 11:29:51;;;;;;;;;;;;;;;19.88;55.28;97508.19;4184681;28;5674;-69
2022/05/09 11:32:41;;;;;;;;;;;;;;;19.92;55.00;97506.66;4167705;28;5592;-69
2022/05/09 11:35:10;;;;;;;;;;;;;;;19.96;55.32;97502.47;4182448;28;5674;-69
2022/05/09 11:37:37;;;;;;;;;;;;;;;19.97;55.32;97504.09;4184033;28;5693;-69
2022/05/09 11:40:04;;;;;;;;;;;;;;;19.97;55.36;97493.34;4180659;28;5753;-69
2022/05/09 11:44:46;;;;;;;;;;;;;;;20.04;55.48;97483.28;4182857;28;5953;-69
2022/05/09 11:47:06;;;;;;;;;;;;;;;20.10;55.47;97487.72;4183416;28;5865;-69
2022/05/09 11:49:38;;;;;;;;;;;;;;;20.13;55.34;97484.56;4177686;28;5661;-68
2022/05/09 11:51:49;;;;;;;;;;;;;;;20.15;55.56;97490.50;4175993;28;5684;-69
2022/05/09 11:54:08;;;;;;;;;;;;;;;20.17;55.35;97487.59;4183331;28;5670;-68
2022/05/09 11:56:10;;;;;;;;;;;;;;;20.18;55.40;97484.69;4212552;28;5755;-68
2022/05/09 11:58:12;;;;;;;;;;;;;;;20.22;55.66;97485.00;4219055;28;5661;-68
2022/05/09 12:00:29;;;;;;;;;;;;;;;20.25;55.38;97476.47;4201797;28;5632;-68
2022/05/09 12:02:49;;;;;;;;;;;;;;;20.26;55.04;97476.22;4213762;28;5128;-69
2022/05/09 12:04:52;;;;;;;;;;;;;;;20.27;55.34;97488.63;4216934;28;5711;-70
2022/05/09 12:06:53;;;;;;;;;;;;;;;20.28;55.26;97479.53;4204886;28;5623;-67
2022/05/09 12:08:56;;;;;;;;;;;;;;;20.31;55.17;97478.22;4209308;28;5778;-62
2022/05/09 12:11:16;;;;;;;;;;;;;;;20.34;55.29;97478.53;4207044;28;5715;-62
2022/05/09 12:13:21;;;;;;;;;;;;;;;20.38;55.15;97467.31;4207316;28;5801;-62
2022/05/09 12:15:23;;;;;;;;;;;;;;;20.40;55.19;97475.97;4209701;28;5797;-62
2022/05/09 12:17:41;;;;;;;;;;;;;;;20.40;55.05;97470.59;4208014;28;5795;-63
2022/05/09 12:19:43;;;;;;;;;;;;;;;20.42;54.94;97473.88;4205077;28;5683;-63
2022/05/09 12:22:37;;;;;;;;;;;;;;;20.42;54.92;97469.34;4203051;28;5844;-63
2022/05/09 12:24:42;;;;;;;;;;;;;;;20.45;55.03;97465.34;4176845;28;6514;-62
2022/05/09 12:26:48;;;;;;;;;;;;;;;20.46;54.89;97465.09;4217383;28;5664;-62
2022/05/09 12:28:50;;;;;;;;;;;;;;;20.48;55.12;97460.31;4206748;28;5726;-63
2022/05/09 12:31:23;;;;;;;;;;;;;;;20.52;54.87;97463.34;4203717;28;5777;-63
2022/05/09 12:33:46;;;;;;;;;;;;;;;20.54;55.06;97456.69;4206025;28;5710;-62
2022/05/09 12:35:51;;;;;;;;;;;;;;;20.55;54.62;97463.69;4205713;28;5828;-62
2022/05/09 12:37:53;;;;;;;;;;;;;;;20.57;54.92;97466.13;4198691;28;5775;-62
2022/05/09 12:39:55;;;;;;;;;;;;;;;20.59;55.00;97461.31;4218031;28;5697;-62
2022/05/09 12:41:59;;;;;;;;;;;;;;;20.61;54.71;97457.34;4208621;28;5693;-62
2022/05/09 12:44:16;;;;;;;;;;;;;;;20.63;54.60;97455.25;4209721;28;5657;-62
2022/05/09 12:46:31;;;;;;;;;;;;;;;20.67;54.42;97462.81;4212419;28;5750;-62
2022/05/09 12:48:38;;;;;;;;;;;;;;;20.66;54.65;97459.31;4201671;28;5772;-63
2022/05/09 12:50:43;;;;;;;;;;;;;;;20.67;54.51;97460.13;4207937;28;5684;-63
2022/05/09 12:52:56;;;;;;;;;;;;;;;20.68;54.40;97459.88;4218109;28;5768;-63
2022/05/09 12:57:32;;;;;;;;;;;;;;;20.75;53.87;97455.19;4206017;28;5784;-62
2022/05/09 12:59:51;;;;;;;;;;;;;;;20.75;53.81;97443.63;4204461;28;5630;-63
2022/05/09 13:01:59;;;;;;;;;;;;;;;20.76;54.08;97448.75;4201840;28;5741;-64
2022/05/09 13:04:30;;;;;;;;;;;;;;;20.79;53.88;97450.13;4208388;28;5682;-63
2022/05/09 13:06:38;;;;;;;;;;;;;;;20.78;53.59;97440.44;4211324;28;5668;-63
2022/05/09 13:08:41;;;;;;;;;;;;;;;20.77;53.85;97444.19;4209809;28;5768;-63
2022/05/09 13:10:53;;;;;;;;;;;;;;;20.79;53.60;97437.50;4202394;28;5856;-64
2022/05/09 13:13:00;;;;;;;;;;;;;;;20.81;53.29;97435.38;4214713;28;5676;-63
2022/05/09 13:15:06;;;;;;;;;;;;;;;20.86;53.30;97426.63;4217160;28;5787;-64
2022/05/09 13:17:19;;;;;;;;;;;;;;;20.90;52.94;97428.56;4215572;28;5715;-64
2022/05/09 13:19:22;;;;;;;;;;;;;;;20.93;52.92;97436.13;4208175;28;5698;-64
2022/05/09 13:21:28;;;;;;;;;;;;;;;20.97;52.87;97438.34;4213676;28;5673;-65
2022/05/09 13:23:37;;;;;;;;;;;;;;;20.99;52.80;97437.03;4218174;28;5672;-64
2022/05/09 13:25:49;;;;;;;;;;;;;;;21.01;52.66;97428.72;4216568;28;5627;-63
2022/05/09 13:27:53;;;;;;;;;;;;;;;21.02;52.51;97438.41;4215807;28;6589;-64
2022/05/09 13:29:56;;;;;;;;;;;;;;;21.01;52.46;97428.72;4215303;28;5829;-64
2022/05/09 13:31:59;;;;;;;;;;;;;;;21.02;52.22;97428.47;4219076;28;5844;-64
2022/05/09 13:34:03;;;;;;;;;;;;;;;21.04;52.05;97418.28;4214123;28;6390;-63
2022/05/09 13:36:06;;;;;;;;;;;;;;;21.05;51.97;97419.91;4213568;28;5776;-63
2022/05/09 13:38:18;;;;;;;;;;;;;;;21.08;51.89;97421.34;4211363;28;5789;-63
2022/05/09 13:40:23;;;;;;;;;;;;;;;21.10;51.69;97424.59;4213497;28;5726;-63
2022/05/09 13:42:33;;;;;;;;;;;;;;;21.11;51.84;97418.16;4217636;28;5694;-63
2022/05/09 13:44:37;;;;;;;;;;;;;;;21.12;51.98;97417.91;4217949;28;5787;-64
2022/05/09 13:46:40;;;;;;;;;;;;;;;21.13;51.68;97416.84;4215677;28;5693;-63
2022/05/09 13:48:44;;;;;;;;;;;;;;;21.15;51.65;97419.28;4211371;28;5640;-63
2022/05/09 13:50:52;;;;;;;;;;;;;;;21.16;51.70;97413.66;4201562;28;5717;-64
2022/05/09 13:53:03;;;;;;;;;;;;;;;21.20;51.96;97414.00;4203742;28;6652;-64
2022/05/09 13:55:08;;;;;;;;;;;;;;;21.21;52.01;97410.25;4216524;28;5675;-64
2022/05/09 13:57:16;;;;;;;;;;;;;;;21.23;51.73;97408.94;4215650;28;5852;-64
2022/05/09 13:59:25;;;;;;;;;;;;;;;21.24;51.65;97398.97;4206013;28;5676;-64
2022/05/09 14:01:38;;;;;;;;;;;;;;;21.27;51.74;97400.38;4215799;28;5109;-64
2022/05/09 14:03:46;;;;;;;;;;;;;;;21.29;51.77;97401.75;4212885;28;5660;-64
2022/05/09 14:05:52;;;;;;;;;;;;;;;21.31;51.56;97396.97;4207206;28;5747;-64
2022/05/09 14:07:59;;;;;;;;;;;;;;;21.32;51.63;97395.09;4215672;28;5826;-64
2022/05/09 14:10:13;;;;;;;;;;;;;;;21.32;51.59;97393.22;4216324;28;5649;-63
2022/05/09 14:12:21;;;;;;;;;;;;;;;21.34;51.77;97388.41;4216677;28;6340;-63
2022/05/09 14:14:39;;;;;;;;;;;;;;;21.35;51.55;97386.53;4216972;28;5676;-63
2022/05/09 14:16:47;;;;;;;;;;;;;;;21.34;51.56;97380.34;4215469;28;5628;-64
2022/05/09 14:19:20;;;;;;;;;;;;;;;21.38;51.92;97376.09;4214990;28;5675;-68
2022/05/09 14:21:25;;;;;;;;;;;;;;;21.42;51.94;97377.25;4203104;28;5624;-68
2022/05/09 14:23:27;;;;;;;;;;;;;;;21.45;51.47;97374.03;4215971;28;5756;-68
2022/05/09 14:30:14;;;;;;;;;;;;;;;21.46;51.47;97364.09;4215978;28;5672;-69
2022/05/09 14:32:39;;;;;;;;;;;;;;;21.49;51.67;97367.09;4216988;28;6338;-66
2022/05/09 14:34:46;;;;;;;;;;;;;;;21.49;51.69;97363.59;4213581;28;5625;-66
2022/05/09 14:36:49;;;;;;;;;;;;;;;21.49;51.91;97369.78;4216379;28;5771;-68
2022/05/09 14:38:58;;;;;;;;;;;;;;;21.50;51.66;97360.66;4215166;28;6317;-70
2022/05/09 14:41:44;;;;;;;;;;;;;;;21.48;51.61;97365.47;4216421;28;5899;-69
2022/05/09 14:43:46;;;;;;;;;;;;;;;21.48;51.56;97367.34;4186939;28;5799;-68
2022/05/09 14:46:04;;;;;;;;;;;;;;;21.51;52.08;97369.53;4213484;28;5121;-68
2022/05/09 14:48:18;;;;;;;;;;;;;;;21.55;51.86;97370.69;4212178;28;5761;-69
2022/05/09 14:50:43;;;;;;;;;;;;;;;21.57;51.87;97373.13;4215141;28;5680;-68
2022/05/09 14:52:57;;;;;;;;;;;;;;;21.58;51.85;97372.06;4219371;28;5680;-72
2022/05/09 14:57:27;;;;;;;;;;;;;;;21.57;51.56;97365.84;4210270;28;5865;-69
2022/05/09 14:59:31;;;;;;;;;;;;;;;21.56;51.65;97358.84;4216638;28;5710;-71
2022/05/09 15:01:49;;;;;;;;;;;;;;;21.57;51.75;97360.47;4211285;28;7013;-68
2022/05/09 15:03:54;;;;;;;;;;;;;;;21.58;51.54;97354.03;4207212;28;5553;-67
2022/05/09 15:05:57;;;;;;;;;;;;;;;21.59;51.87;97363.72;4211467;28;5808;-69
2022/05/09 15:08:06;;;;;;;;;;;;;;;21.58;51.77;97361.28;4216832;28;5676;-71
2022/05/09 15:10:07;;;;;;;;;;;;;;;21.58;51.57;97355.91;4217245;28;5760;-67
2022/05/09 15:12:14;;;;;;;;;;;;;;;21.61;51.23;97363.47;4199650;28;5643;-66
2022/05/09 15:14:16;;;;;;;;;;;;;;;21.62;51.26;97354.34;4216863;28;5721;-66
2022/05/09 15:16:20;;;;;;;;;;;;;;;21.65;51.11;97351.16;4203594;28;5962;-67
2022/05/09 15:18:24;;;;;;;;;;;;;;;21.67;50.92;97352.53;4216270;28;5105;-65
2022/05/09 15:20:25;;;;;;;;;;;;;;;21.70;50.35;97353.91;4200325;28;5837;-65
2022/05/09 15:22:27;;;;;;;;;;;;;;;21.72;49.90;97354.47;4219274;28;5762;-65
2022/05/09 15:24:28;;;;;;;;;;;;;;;21.74;49.79;97352.34;4219980;28;5725;-66
2022/05/09 15:26:34;;;;;;;;;;;;;;;21.74;49.70;97346.94;4218721;28;5740;-65
2022/05/09 15:28:37;;;;;;;;;;;;;;;21.72;49.28;97347.22;4214817;28;5691;-67
2022/05/09 15:30:41;;;;;;;;;;;;;;;21.75;48.87;97349.41;4233569;28;5643;-64
2022/05/09 15:32:43;;;;;;;;;;;;;;;21.79;49.08;97341.66;4215558;28;5838;-65
2022/05/09 15:34:45;;;;;;;;;;;;;;;21.80;48.79;97340.59;4215379;28;5719;-65
2022/05/09 15:36:47;;;;;;;;;;;;;;;21.82;49.15;97338.44;4212812;28;5808;-64
2022/05/09 15:38:49;;;;;;;;;;;;;;;21.80;48.82;97346.78;4208191;28;5737;-64
2022/05/09 15:40:59;;;;;;;;;;;;;;;21.80;48.85;97340.59;4218100;28;5636;-65
2022/05/09 15:43:06;;;;;;;;;;;;;;;21.83;48.49;97340.06;4216239;28;5684;-65
2022/05/09 15:45:11;;;;;;;;;;;;;;;21.86;48.41;97339.59;4210371;28;5889;-65
2022/05/09 15:47:13;;;;;;;;;;;;;;;21.87;48.72;97335.84;4208580;28;5675;-64
2022/05/09 15:49:18;;;;;;;;;;;;;;;21.89;49.01;97341.78;4214105;28;5620;-64
2022/05/09 15:51:20;;;;;;;;;;;;;;;21.90;49.42;97343.38;4218911;28;5672;-64
2022/05/09 15:53:25;;;;;;;;;;;;;;;21.89;49.14;97338.25;4219735;28;5681;-65
2022/05/09 15:55:27;;;;;;;;;;;;;;;21.88;49.13;97342.03;4217625;28;5711;-64
2022/05/09 15:57:29;;;;;;;;;;;;;;;21.87;49.00;97335.84;4208258;28;5758;-65
2022/05/09 15:59:31;;;;;;;;;;;;;;;21.88;48.80;97342.03;4202648;28;5689;-64
2022/05/09 16:01:35;;;;;;;;;;;;;;;21.89;49.15;97341.78;4213240;28;5673;-65
2022/05/09 16:03:38;;;;;;;;;;;;;;;21.91;49.23;97336.94;4213582;28;5863;-65
2022/05/09 16:12:50;;;;;;;;;;;;;;;21.92;48.34;97345.81;4218829;28;5669;-65
2022/05/09 16:14:52;;;;;;;;;;;;;;;21.90;48.74;97340.69;4218134;28;5751;-65
2022/05/09 16:16:59;;;;;;;;;;;;;;;21.90;48.46;97339.88;4203668;28;5734;-64
2022/05/09 16:19:05;;;;;;;;;;;;;;;21.89;48.58;97344.47;4210906;28;5812;-65
2022/05/09 16:21:07;;;;;;;;;;;;;;;21.90;48.51;97346.09;4212596;28;5732;-65
2022/05/09 16:23:10;;;;;;;;;;;;;;;21.91;48.67;97346.91;4216134;28;5718;-65
2022/05/09 16:25:12;;;;;;;;;;;;;;;21.91;48.85;97350.41;4205824;28;5668;-65
2022/05/09 16:27:21;;;;;;;;;;;;;;;21.92;48.84;97353.91;4217105;28;5624;-66
2022/05/09 16:29:22;;;;;;;;;;;;;;;21.91;49.09;97353.09;4219041;28;5684;-65
2022/05/09 16:31:25;;;;;;;;;;;;;;;21.91;49.58;97347.72;4216670;28;5790;-65
2022/05/09 16:33:28;;;;;;;;;;;;;;;21.91;49.86;97352.28;4218770;28;5668;-65
2022/05/09 16:35:32;;;;;;;;;;;;;;;21.89;49.80;97349.03;4212760;28;5715;-65
2022/05/09 16:37:33;;;;;;;;;;;;;;;21.87;49.72;97357.38;4212319;28;6419;-66
2022/05/09 16:39:38;;;;;;;;;;;;;;;21.85;50.11;97351.38;4203978;28;5795;-65
2022/05/09 16:41:40;;;;;;;;;;;;;;;21.83;49.88;97350.84;4201940;28;5753;-65
2022/05/09 16:43:43;;;;;;;;;;;;;;;21.82;49.85;97343.81;4213235;28;5764;-64
2022/05/09 16:45:46;;;;;;;;;;;;;;;21.82;49.95;97359.97;4213616;28;5682;-65
2022/05/09 16:47:48;;;;;;;;;;;;;;;21.80;50.04;97351.34;4214015;28;5724;-64
2022/05/09 16:49:50;;;;;;;;;;;;;;;21.77;50.08;97351.84;4225565;28;5891;-65
2022/05/09 16:51:52;;;;;;;;;;;;;;;21.77;49.85;97357.25;4234237;28;6840;-64
2022/05/09 16:54:14;;;;;;;;;;;;;;;21.76;49.71;97355.63;4222843;27;5690;-65
2022/05/09 16:56:17;;;;;;;;;;;;;;;21.75;49.96;97349.41;4215992;28;5628;-65
2022/05/09 16:58:23;;;;;;;;;;;;;;;21.76;49.46;97344.84;4216348;28;5643;-64
2022/05/09 17:00:26;;;;;;;;;;;;;;;21.74;49.16;97349.66;4215262;28;5707;-64
2022/05/09 17:02:29;;;;;;;;;;;;;;;21.73;48.99;97361.47;4214679;28;5710;-64
2022/05/09 17:04:31;;;;;;;;;;;;;;;21.70;48.85;97351.22;4209631;28;5795;-65
2022/05/09 17:06:39;;;;;;;;;;;;;;;21.67;48.84;97357.91;4215370;28;5702;-64
2022/05/09 17:08:40;;;;;;;;;;;;;;;21.65;48.72;97354.66;4215705;28;6438;-64
2022/05/09 17:10:42;;;;;;;;;;;;;;;21.66;48.24;97347.41;4214368;28;5743;-65
2022/05/09 17:12:47;;;;;;;;;;;;;;;21.65;48.50;97360.06;4210546;28;5694;-64
2022/05/09 17:14:50;;;;;;;;;;;;;;;21.66;47.93;97350.91;4202433;28;5835;-65
2022/05/09 17:16:55;;;;;;;;;;;;;;;21.65;48.03;97353.88;4208749;28;5624;-64
2022/05/09 17:18:57;;;;;;;;;;;;;;;21.64;47.81;97354.94;4206269;28;5793;-65
2022/05/09 17:20:59;;;;;;;;;;;;;;;21.65;47.71;97348.47;4215737;28;5715;-66
2022/05/09 17:23:01;;;;;;;;;;;;;;;21.64;47.40;97357.63;4217397;28;5664;-66
2022/05/09 17:25:04;;;;;;;;;;;;;;;21.63;47.38;97350.59;4217405;28;5677;-64
2022/05/09 17:27:11;;;;;;;;;;;;;;;21.63;47.19;97353.28;4209542;28;5897;-65
2022/05/09 17:29:14;;;;;;;;;;;;;;;21.63;47.00;97354.13;4204842;28;5936;-65
2022/05/09 17:31:15;;;;;;;;;;;;;;;21.62;46.75;97348.97;4216585;28;6187;-65
2022/05/09 17:33:23;;;;;;;;;;;;;;;21.62;46.80;97351.66;4200024;28;5105;-64
2022/05/09 17:37:46;;;;;;;;;;;;;;;21.62;46.90;97351.66;4216616;28;5660;-65
2022/05/09 17:39:51;;;;;;;;;;;;;;;21.61;46.34;97352.72;4212225;28;5820;-65
2022/05/09 17:41:52;;;;;;;;;;;;;;;21.61;46.38;97358.09;4209639;28;5690;-64
2022/05/09 17:43:57;;;;;;;;;;;;;;;21.63;46.42;97353.28;4213389;28;5792;-65
2022/05/09 17:46:00;;;;;;;;;;;;;;;21.64;46.47;97361.13;4200928;28;5827;-65
2022/05/09 17:48:03;;;;;;;;;;;;;;;21.66;46.10;97356.28;4209399;28;5968;-65
2022/05/09 17:50:05;;;;;;;;;;;;;;;21.72;45.81;97354.47;4208257;28;5769;-65
2022/05/09 17:52:08;;;;;;;;;;;;;;;21.78;45.97;97359.69;4210312;28;5784;-66
2022/05/09 17:54:11;;;;;;;;;;;;;;;21.83;45.35;97358.91;4215389;28;5811;-65
2022/05/09 17:56:13;;;;;;;;;;;;;;;21.86;45.31;97357.59;4199734;28;5710;-65
2022/05/09 17:58:17;;;;;;;;;;;;;;;21.89;45.53;97360.59;4205429;28;5954;-65
2022/05/09 18:00:19;;;;;;;;;;;;;;;21.89;45.49;97363.31;4201593;28;5909;-65
2022/05/09 18:02:25;;;;;;;;;;;;;;;21.89;45.52;97362.50;4199215;28;5805;-65
2022/05/09 18:04:28;;;;;;;;;;;;;;;21.88;45.23;97364.38;4210829;28;5939;-64
2022/05/09 18:06:29;;;;;;;;;;;;;;;21.86;45.27;97355.75;4204708;28;7699;-65
2022/05/09 18:08:31;;;;;;;;;;;;;;;21.85;45.08;97359.47;4206170;28;5939;-65
2022/05/09 18:10:35;;;;;;;;;;;;;;;21.83;45.02;97366.97;4196503;28;5723;-65
2022/05/09 18:12:48;;;;;;;;;;;;;;;21.82;45.10;97369.94;4199939;28;5825;-66
2022/05/09 18:15:06;;;;;;;;;;;;;;;21.78;44.90;97369.63;4208810;28;6140;-65
2022/05/09 18:17:16;;;;;;;;;;;;;;;21.74;45.05;97363.91;4198854;28;5766;-67
2022/05/09 18:19:18;;;;;;;;;;;;;;;21.71;45.31;97374.38;4205009;28;5976;-65